sensor_id;sensor_type;location;lat;lon;timestamp;P1;durP1;ratioP1;P2;durP2;ratioP2
66593;SDS011;53450;42.584;23.366;2023-06-14T00:02:23;11.75;;;8.10;;
66593;SDS011;53450;42.584;23.366;2023-06-14T00:04:49;11.85;;;8.18;;
66593;SDS011;53450;42.584;23.366;2023-06-14T00:07:16;14.18;;;8.60;;
66593;SDS011;53450;42.584;23.366;2023-06-14T00:09:42;13.48;;;8.75;;
66593;SDS011;53450;42.584;23.366;2023-06-14T00:12:11;11.82;;;7.72;;
66593;SDS011;53450;42.584;23.366;2023-06-14T00:14:37;10.45;;;7.55;;
66593;SDS011;53450;42.584;23.366;2023-06-14T00:17:03;13.90;;;9.10;;
66593;SDS011;53450;42.584;23.366;2023-06-14T00:19:29;18.27;;;11.38;;
66593;SDS011;53450;42.584;23.366;2023-06-14T00:22:01;17.55;;;11.93;;
66593;SDS011;53450;42.584;23.366;2023-06-14T00:24:28;15.35;;;11.98;;
66593;SDS011;53450;42.584;23.366;2023-06-14T00:26:54;15.82;;;12.07;;
66593;SDS011;53450;42.584;23.366;2023-06-14T00:29:20;22.63;;;11.85;;
66593;SDS011;53450;42.584;23.366;2023-06-14T00:31:46;17.85;;;12.45;;
66593;SDS011;53450;42.584;23.366;2023-06-14T00:34:12;17.55;;;11.43;;
66593;SDS011;53450;42.584;23.366;2023-06-14T00:36:40;17.65;;;11.45;;
66593;SDS011;53450;42.584;23.366;2023-06-14T00:39:06;17.75;;;11.68;;
66593;SDS011;53450;42.584;23.366;2023-06-14T00:41:31;15.52;;;11.90;;
66593;SDS011;53450;42.584;23.366;2023-06-14T00:43:58;20.20;;;12.07;;
66593;SDS011;53450;42.584;23.366;2023-06-14T00:46:25;14.10;;;10.90;;
66593;SDS011;53450;42.584;23.366;2023-06-14T00:48:53;18.08;;;11.10;;
66593;SDS011;53450;42.584;23.366;2023-06-14T00:51:21;12.10;;;9.85;;
66593;SDS011;53450;42.584;23.366;2023-06-14T00:53:47;10.68;;;8.73;;
66593;SDS011;53450;42.584;23.366;2023-06-14T00:56:13;12.75;;;7.40;;
66593;SDS011;53450;42.584;23.366;2023-06-14T00:58:42;7.57;;;6.72;;
66593;SDS011;53450;42.584;23.366;2023-06-14T01:01:11;13.02;;;7.68;;
66593;SDS011;53450;42.584;23.366;2023-06-14T01:03:39;10.95;;;7.25;;
66593;SDS011;53450;42.584;23.366;2023-06-14T01:06:28;15.27;;;9.00;;
66593;SDS011;53450;42.584;23.366;2023-06-14T01:09:10;12.68;;;8.15;;
66593;SDS011;53450;42.584;23.366;2023-06-14T01:11:48;13.48;;;7.50;;
66593;SDS011;53450;42.584;23.366;2023-06-14T01:14:19;6.60;;;6.00;;
66593;SDS011;53450;42.584;23.366;2023-06-14T01:16:46;11.95;;;7.47;;
66593;SDS011;53450;42.584;23.366;2023-06-14T01:19:13;8.05;;;5.85;;
66593;SDS011;53450;42.584;23.366;2023-06-14T01:21:41;12.43;;;6.78;;
66593;SDS011;53450;42.584;23.366;2023-06-14T01:24:10;11.30;;;6.40;;
66593;SDS011;53450;42.584;23.366;2023-06-14T01:26:36;8.90;;;6.13;;
66593;SDS011;53450;42.584;23.366;2023-06-14T01:29:03;6.53;;;5.90;;
66593;SDS011;53450;42.584;23.366;2023-06-14T01:31:29;7.78;;;6.97;;
66593;SDS011;53450;42.584;23.366;2023-06-14T01:34:07;10.57;;;6.78;;
66593;SDS011;53450;42.584;23.366;2023-06-14T01:36:36;7.80;;;5.63;;
66593;SDS011;53450;42.584;23.366;2023-06-14T01:39:22;8.77;;;5.90;;
66593;SDS011;53450;42.584;23.366;2023-06-14T01:41:48;10.30;;;5.88;;
66593;SDS011;53450;42.584;23.366;2023-06-14T01:44:17;9.00;;;5.60;;
66593;SDS011;53450;42.584;23.366;2023-06-14T01:46:45;8.70;;;6.55;;
66593;SDS011;53450;42.584;23.366;2023-06-14T01:49:11;8.15;;;7.35;;
66593;SDS011;53450;42.584;23.366;2023-06-14T01:51:37;10.18;;;7.25;;
66593;SDS011;53450;42.584;23.366;2023-06-14T01:54:07;13.10;;;8.00;;
66593;SDS011;53450;42.584;23.366;2023-06-14T01:56:33;10.55;;;7.85;;
66593;SDS011;53450;42.584;23.366;2023-06-14T01:58:59;12.07;;;9.48;;
66593;SDS011;53450;42.584;23.366;2023-06-14T02:01:27;18.08;;;9.57;;
66593;SDS011;53450;42.584;23.366;2023-06-14T02:03:54;14.60;;;9.68;;
66593;SDS011;53450;42.584;23.366;2023-06-14T02:06:19;14.88;;;10.05;;
66593;SDS011;53450;42.584;23.366;2023-06-14T02:08:49;13.55;;;9.32;;
66593;SDS011;53450;42.584;23.366;2023-06-14T02:11:15;9.93;;;8.25;;
66593;SDS011;53450;42.584;23.366;2023-06-14T02:13:42;9.48;;;8.48;;
66593;SDS011;53450;42.584;23.366;2023-06-14T02:16:08;8.60;;;7.28;;
66593;SDS011;53450;42.584;23.366;2023-06-14T02:18:59;10.85;;;7.45;;
66593;SDS011;53450;42.584;23.366;2023-06-14T02:21:50;10.48;;;6.97;;
66593;SDS011;53450;42.584;23.366;2023-06-14T02:24:16;16.08;;;7.40;;
66593;SDS011;53450;42.584;23.366;2023-06-14T02:26:42;9.50;;;7.10;;
66593;SDS011;53450;42.584;23.366;2023-06-14T02:31:40;10.55;;;7.93;;
66593;SDS011;53450;42.584;23.366;2023-06-14T02:34:14;11.07;;;8.27;;
66593;SDS011;53450;42.584;23.366;2023-06-14T02:36:42;10.02;;;8.70;;
66593;SDS011;53450;42.584;23.366;2023-06-14T02:39:08;12.68;;;9.52;;
66593;SDS011;53450;42.584;23.366;2023-06-14T02:41:35;11.43;;;8.88;;
66593;SDS011;53450;42.584;23.366;2023-06-14T02:44:26;15.35;;;8.23;;
66593;SDS011;53450;42.584;23.366;2023-06-14T02:47:18;16.50;;;9.30;;
66593;SDS011;53450;42.584;23.366;2023-06-14T02:49:44;9.07;;;8.18;;
66593;SDS011;53450;42.584;23.366;2023-06-14T02:52:14;13.57;;;8.63;;
66593;SDS011;53450;42.584;23.366;2023-06-14T02:54:40;9.85;;;7.85;;
66593;SDS011;53450;42.584;23.366;2023-06-14T02:57:10;9.65;;;8.65;;
66593;SDS011;53450;42.584;23.366;2023-06-14T02:59:37;9.48;;;8.48;;
66593;SDS011;53450;42.584;23.366;2023-06-14T03:02:04;12.75;;;8.55;;
66593;SDS011;53450;42.584;23.366;2023-06-14T03:04:32;12.75;;;8.88;;
66593;SDS011;53450;42.584;23.366;2023-06-14T03:07:04;12.95;;;9.23;;
66593;SDS011;53450;42.584;23.366;2023-06-14T03:09:39;18.73;;;10.27;;
66593;SDS011;53450;42.584;23.366;2023-06-14T03:12:15;12.30;;;9.52;;
66593;SDS011;53450;42.584;23.366;2023-06-14T03:14:41;14.02;;;9.68;;
66593;SDS011;53450;42.584;23.366;2023-06-14T03:17:36;11.13;;;9.85;;
66593;SDS011;53450;42.584;23.366;2023-06-14T03:20:30;11.65;;;9.88;;
66593;SDS011;53450;42.584;23.366;2023-06-14T03:23:01;13.50;;;9.68;;
66593;SDS011;53450;42.584;23.366;2023-06-14T03:25:28;19.85;;;10.73;;
66593;SDS011;53450;42.584;23.366;2023-06-14T03:28:01;17.00;;;9.57;;
66593;SDS011;53450;42.584;23.366;2023-06-14T03:30:29;13.75;;;10.50;;
66593;SDS011;53450;42.584;23.366;2023-06-14T03:32:56;14.75;;;11.02;;
66593;SDS011;53450;42.584;23.366;2023-06-14T03:35:25;27.98;;;11.35;;
66593;SDS011;53450;42.584;23.366;2023-06-14T03:37:54;13.15;;;10.77;;
66593;SDS011;53450;42.584;23.366;2023-06-14T03:40:20;19.65;;;10.73;;
66593;SDS011;53450;42.584;23.366;2023-06-14T03:42:50;20.80;;;11.27;;
66593;SDS011;53450;42.584;23.366;2023-06-14T03:45:17;18.02;;;10.63;;
66593;SDS011;53450;42.584;23.366;2023-06-14T03:47:42;17.35;;;10.45;;
66593;SDS011;53450;42.584;23.366;2023-06-14T03:50:09;12.05;;;10.45;;
66593;SDS011;53450;42.584;23.366;2023-06-14T03:52:36;15.50;;;10.43;;
66593;SDS011;53450;42.584;23.366;2023-06-14T03:55:03;12.40;;;10.50;;
66593;SDS011;53450;42.584;23.366;2023-06-14T03:57:30;13.60;;;10.40;;
66593;SDS011;53450;42.584;23.366;2023-06-14T03:59:57;16.17;;;10.85;;
66593;SDS011;53450;42.584;23.366;2023-06-14T04:02:25;17.90;;;10.75;;
66593;SDS011;53450;42.584;23.366;2023-06-14T04:04:54;14.60;;;11.02;;
66593;SDS011;53450;42.584;23.366;2023-06-14T04:07:20;14.23;;;10.27;;
66593;SDS011;53450;42.584;23.366;2023-06-14T04:09:46;18.42;;;10.57;;
66593;SDS011;53450;42.584;23.366;2023-06-14T04:12:14;15.05;;;11.23;;
66593;SDS011;53450;42.584;23.366;2023-06-14T04:14:40;14.93;;;10.32;;
66593;SDS011;53450;42.584;23.366;2023-06-14T04:17:08;18.58;;;11.20;;
66593;SDS011;53450;42.584;23.366;2023-06-14T04:19:36;14.40;;;10.73;;
66593;SDS011;53450;42.584;23.366;2023-06-14T04:22:02;18.90;;;12.23;;
66593;SDS011;53450;42.584;23.366;2023-06-14T04:24:30;16.63;;;12.15;;
66593;SDS011;53450;42.584;23.366;2023-06-14T04:26:58;22.13;;;13.00;;
66593;SDS011;53450;42.584;23.366;2023-06-14T04:29:28;15.60;;;12.33;;
66593;SDS011;53450;42.584;23.366;2023-06-14T04:32:01;17.67;;;10.75;;
66593;SDS011;53450;42.584;23.366;2023-06-14T04:34:56;14.35;;;10.32;;
66593;SDS011;53450;42.584;23.366;2023-06-14T04:37:47;19.77;;;12.13;;
66593;SDS011;53450;42.584;23.366;2023-06-14T04:40:13;19.15;;;11.57;;
66593;SDS011;53450;42.584;23.366;2023-06-14T04:42:40;14.82;;;10.93;;
66593;SDS011;53450;42.584;23.366;2023-06-14T04:45:11;13.35;;;11.13;;
66593;SDS011;53450;42.584;23.366;2023-06-14T04:47:41;13.85;;;10.88;;
66593;SDS011;53450;42.584;23.366;2023-06-14T04:50:07;14.80;;;9.85;;
66593;SDS011;53450;42.584;23.366;2023-06-14T04:52:34;15.18;;;10.32;;
66593;SDS011;53450;42.584;23.366;2023-06-14T04:55:00;18.38;;;10.07;;
66593;SDS011;53450;42.584;23.366;2023-06-14T04:57:27;10.57;;;9.48;;
66593;SDS011;53450;42.584;23.366;2023-06-14T04:59:57;16.65;;;10.10;;
66593;SDS011;53450;42.584;23.366;2023-06-14T05:02:27;11.82;;;10.00;;
66593;SDS011;53450;42.584;23.366;2023-06-14T05:04:53;14.05;;;9.48;;
66593;SDS011;53450;42.584;23.366;2023-06-14T05:07:22;11.45;;;10.25;;
66593;SDS011;53450;42.584;23.366;2023-06-14T05:09:50;14.23;;;10.23;;
66593;SDS011;53450;42.584;23.366;2023-06-14T05:12:16;11.77;;;9.82;;
66593;SDS011;53450;42.584;23.366;2023-06-14T05:14:49;10.73;;;9.63;;
66593;SDS011;53450;42.584;23.366;2023-06-14T05:17:18;13.50;;;9.38;;
66593;SDS011;53450;42.584;23.366;2023-06-14T05:19:48;11.15;;;9.10;;
66593;SDS011;53450;42.584;23.366;2023-06-14T05:22:13;9.93;;;7.85;;
66593;SDS011;53450;42.584;23.366;2023-06-14T05:25:07;11.23;;;8.68;;
66593;SDS011;53450;42.584;23.366;2023-06-14T05:27:37;12.18;;;7.97;;
66593;SDS011;53450;42.584;23.366;2023-06-14T05:30:06;11.70;;;8.45;;
66593;SDS011;53450;42.584;23.366;2023-06-14T05:32:35;10.80;;;8.02;;
66593;SDS011;53450;42.584;23.366;2023-06-14T05:35:05;10.15;;;8.30;;
66593;SDS011;53450;42.584;23.366;2023-06-14T05:37:31;10.20;;;7.68;;
66593;SDS011;53450;42.584;23.366;2023-06-14T05:39:57;8.07;;;7.28;;
66593;SDS011;53450;42.584;23.366;2023-06-14T05:42:34;9.60;;;7.95;;
66593;SDS011;53450;42.584;23.366;2023-06-14T05:44:59;10.10;;;7.47;;
66593;SDS011;53450;42.584;23.366;2023-06-14T05:47:28;12.27;;;9.38;;
66593;SDS011;53450;42.584;23.366;2023-06-14T05:49:54;10.57;;;7.30;;
66593;SDS011;53450;42.584;23.366;2023-06-14T05:52:20;12.63;;;9.65;;
66593;SDS011;53450;42.584;23.366;2023-06-14T05:54:48;17.30;;;11.07;;
66593;SDS011;53450;42.584;23.366;2023-06-14T05:57:14;12.98;;;11.40;;
66593;SDS011;53450;42.584;23.366;2023-06-14T05:59:40;15.90;;;12.13;;
66593;SDS011;53450;42.584;23.366;2023-06-14T06:02:21;16.75;;;12.38;;
66593;SDS011;53450;42.584;23.366;2023-06-14T06:04:53;19.75;;;12.63;;
66593;SDS011;53450;42.584;23.366;2023-06-14T06:10:21;16.15;;;12.65;;
66593;SDS011;53450;42.584;23.366;2023-06-14T06:12:47;18.33;;;12.55;;
66593;SDS011;53450;42.584;23.366;2023-06-14T06:22:04;14.68;;;11.40;;
66593;SDS011;53450;42.584;23.366;2023-06-14T06:24:31;14.85;;;12.40;;
66593;SDS011;53450;42.584;23.366;2023-06-14T06:26:57;23.58;;;12.40;;
66593;SDS011;53450;42.584;23.366;2023-06-14T06:29:23;19.88;;;12.77;;
66593;SDS011;53450;42.584;23.366;2023-06-14T06:31:48;20.02;;;13.02;;
66593;SDS011;53450;42.584;23.366;2023-06-14T06:34:14;16.00;;;13.18;;
66593;SDS011;53450;42.584;23.366;2023-06-14T06:36:42;17.92;;;13.90;;
66593;SDS011;53450;42.584;23.366;2023-06-14T06:39:08;20.80;;;14.40;;
66593;SDS011;53450;42.584;23.366;2023-06-14T06:41:39;22.88;;;13.80;;
66593;SDS011;53450;42.584;23.366;2023-06-14T06:44:05;25.92;;;14.95;;
66593;SDS011;53450;42.584;23.366;2023-06-14T06:46:32;21.52;;;12.32;;
66593;SDS011;53450;42.584;23.366;2023-06-14T06:48:59;24.90;;;13.88;;
66593;SDS011;53450;42.584;23.366;2023-06-14T06:51:25;27.27;;;14.38;;
66593;SDS011;53450;42.584;23.366;2023-06-14T06:53:54;18.17;;;13.85;;
66593;SDS011;53450;42.584;23.366;2023-06-14T06:56:20;21.60;;;14.30;;
66593;SDS011;53450;42.584;23.366;2023-06-14T06:58:48;19.80;;;14.10;;
66593;SDS011;53450;42.584;23.366;2023-06-14T07:01:17;19.50;;;12.48;;
66593;SDS011;53450;42.584;23.366;2023-06-14T07:04:09;16.80;;;13.30;;
66593;SDS011;53450;42.584;23.366;2023-06-14T07:07:00;20.58;;;13.95;;
66593;SDS011;53450;42.584;23.366;2023-06-14T07:09:26;17.95;;;13.55;;
66593;SDS011;53450;42.584;23.366;2023-06-14T07:11:52;19.77;;;13.85;;
66593;SDS011;53450;42.584;23.366;2023-06-14T07:14:18;19.15;;;13.18;;
66593;SDS011;53450;42.584;23.366;2023-06-14T07:16:44;15.27;;;12.13;;
66593;SDS011;53450;42.584;23.366;2023-06-14T07:19:12;28.23;;;11.68;;
66593;SDS011;53450;42.584;23.366;2023-06-14T07:21:37;17.48;;;13.18;;
66593;SDS011;53450;42.584;23.366;2023-06-14T07:24:05;21.88;;;12.27;;
66593;SDS011;53450;42.584;23.366;2023-06-14T07:26:34;18.30;;;13.15;;
66593;SDS011;53450;42.584;23.366;2023-06-14T07:29:00;19.70;;;12.75;;
66593;SDS011;53450;42.584;23.366;2023-06-14T07:31:26;14.52;;;11.15;;
66593;SDS011;53450;42.584;23.366;2023-06-14T07:33:52;17.55;;;11.25;;
66593;SDS011;53450;42.584;23.366;2023-06-14T07:36:18;16.08;;;11.93;;
66593;SDS011;53450;42.584;23.366;2023-06-14T07:38:44;18.48;;;12.02;;
66593;SDS011;53450;42.584;23.366;2023-06-14T07:41:10;15.48;;;10.90;;
66593;SDS011;53450;42.584;23.366;2023-06-14T07:43:35;14.65;;;10.20;;
66593;SDS011;53450;42.584;23.366;2023-06-14T07:46:25;12.52;;;10.75;;
66593;SDS011;53450;42.584;23.366;2023-06-14T07:48:53;13.57;;;10.43;;
66593;SDS011;53450;42.584;23.366;2023-06-14T07:51:19;19.25;;;12.38;;
66593;SDS011;53450;42.584;23.366;2023-06-14T07:53:45;13.45;;;11.93;;
66593;SDS011;53450;42.584;23.366;2023-06-14T07:56:11;17.20;;;11.50;;
66593;SDS011;53450;42.584;23.366;2023-06-14T07:58:39;13.57;;;11.65;;
66593;SDS011;53450;42.584;23.366;2023-06-14T08:01:05;17.05;;;11.73;;
66593;SDS011;53450;42.584;23.366;2023-06-14T08:03:33;19.15;;;12.45;;
66593;SDS011;53450;42.584;23.366;2023-06-14T08:05:59;14.13;;;10.02;;
66593;SDS011;53450;42.584;23.366;2023-06-14T10:06:53;22.98;;;12.23;;
66593;SDS011;53450;42.584;23.366;2023-06-14T10:09:33;17.65;;;12.13;;
66593;SDS011;53450;42.584;23.366;2023-06-14T10:12:17;15.73;;;11.95;;
66593;SDS011;53450;42.584;23.366;2023-06-14T10:24:15;13.55;;;11.98;;
66593;SDS011;53450;42.584;23.366;2023-06-14T12:09:28;8.27;;;6.50;;
66593;SDS011;53450;42.584;23.366;2023-06-14T12:11:59;8.70;;;6.65;;
66593;SDS011;53450;42.584;23.366;2023-06-14T12:14:30;10.02;;;7.10;;
66593;SDS011;53450;42.584;23.366;2023-06-14T12:17:05;7.93;;;6.65;;
66593;SDS011;53450;42.584;23.366;2023-06-14T12:19:31;11.93;;;7.00;;
66593;SDS011;53450;42.584;23.366;2023-06-14T12:22:00;19.42;;;8.88;;
66593;SDS011;53450;42.584;23.366;2023-06-14T12:24:55;19.50;;;8.52;;
66593;SDS011;53450;42.584;23.366;2023-06-14T12:27:48;8.20;;;6.80;;
66593;SDS011;53450;42.584;23.366;2023-06-14T12:30:14;7.40;;;6.70;;
66593;SDS011;53450;42.584;23.366;2023-06-14T12:32:39;6.75;;;5.68;;
66593;SDS011;53450;42.584;23.366;2023-06-14T12:35:12;6.93;;;6.13;;
66593;SDS011;53450;42.584;23.366;2023-06-14T12:37:38;12.18;;;7.65;;
66593;SDS011;53450;42.584;23.366;2023-06-14T12:40:07;6.88;;;6.18;;
66593;SDS011;53450;42.584;23.366;2023-06-14T12:42:33;8.18;;;7.40;;
66593;SDS011;53450;42.584;23.366;2023-06-14T12:45:01;8.48;;;6.07;;
66593;SDS011;53450;42.584;23.366;2023-06-14T12:47:34;6.68;;;5.63;;
66593;SDS011;53450;42.584;23.366;2023-06-14T12:49:59;11.48;;;6.47;;
66593;SDS011;53450;42.584;23.366;2023-06-14T12:52:27;8.63;;;6.90;;
66593;SDS011;53450;42.584;23.366;2023-06-14T12:54:53;10.25;;;7.22;;
66593;SDS011;53450;42.584;23.366;2023-06-14T12:57:18;9.32;;;7.20;;
66593;SDS011;53450;42.584;23.366;2023-06-14T12:59:44;13.80;;;7.90;;
66593;SDS011;53450;42.584;23.366;2023-06-14T13:02:12;9.57;;;8.20;;
66593;SDS011;53450;42.584;23.366;2023-06-14T13:04:47;20.27;;;8.50;;
66593;SDS011;53450;42.584;23.366;2023-06-14T13:07:13;14.13;;;7.68;;
66593;SDS011;53450;42.584;23.366;2023-06-14T13:09:40;9.63;;;8.25;;
66593;SDS011;53450;42.584;23.366;2023-06-14T13:14:49;14.30;;;9.18;;
66593;SDS011;53450;42.584;23.366;2023-06-14T13:17:17;34.45;;;17.60;;
66593;SDS011;53450;42.584;23.366;2023-06-14T13:19:42;28.23;;;12.60;;
66593;SDS011;53450;42.584;23.366;2023-06-14T13:22:08;13.70;;;8.68;;
66593;SDS011;53450;42.584;23.366;2023-06-14T13:24:34;15.85;;;9.20;;
66593;SDS011;53450;42.584;23.366;2023-06-14T13:27:00;10.45;;;8.48;;
66593;SDS011;53450;42.584;23.366;2023-06-14T13:29:25;16.08;;;9.95;;
66593;SDS011;53450;42.584;23.366;2023-06-14T13:31:52;11.90;;;7.95;;
66593;SDS011;53450;42.584;23.366;2023-06-14T13:34:18;9.73;;;6.57;;
66593;SDS011;53450;42.584;23.366;2023-06-14T15:26:52;11.63;;;8.10;;
66593;SDS011;53450;42.584;23.366;2023-06-14T15:28:52;16.02;;;10.50;;
66593;SDS011;53450;42.584;23.366;2023-06-14T15:31:39;13.75;;;8.48;;
66593;SDS011;53450;42.584;23.366;2023-06-14T16:28:22;12.52;;;8.40;;
66593;SDS011;53450;42.584;23.366;2023-06-14T16:30:48;9.93;;;8.23;;
66593;SDS011;53450;42.584;23.366;2023-06-14T16:33:16;11.95;;;8.65;;
66593;SDS011;53450;42.584;23.366;2023-06-14T16:35:42;12.30;;;8.25;;
66593;SDS011;53450;42.584;23.366;2023-06-14T16:38:08;8.70;;;7.88;;
66593;SDS011;53450;42.584;23.366;2023-06-14T16:40:38;10.98;;;8.25;;
66593;SDS011;53450;42.584;23.366;2023-06-14T16:43:03;12.90;;;9.63;;
66593;SDS011;53450;42.584;23.366;2023-06-14T16:45:29;11.57;;;8.45;;
66593;SDS011;53450;42.584;23.366;2023-06-14T16:47:55;12.15;;;8.73;;
66593;SDS011;53450;42.584;23.366;2023-06-14T16:50:21;11.30;;;9.82;;
66593;SDS011;53450;42.584;23.366;2023-06-14T16:52:46;11.73;;;9.23;;
66593;SDS011;53450;42.584;23.366;2023-06-14T16:55:12;8.40;;;7.53;;
66593;SDS011;53450;42.584;23.366;2023-06-14T17:01:39;9.00;;;7.72;;
66593;SDS011;53450;42.584;23.366;2023-06-14T17:09:05;9.38;;;8.48;;
66593;SDS011;53450;42.584;23.366;2023-06-14T17:12:53;11.60;;;8.20;;
66593;SDS011;53450;42.584;23.366;2023-06-14T17:37:27;10.48;;;9.45;;
66593;SDS011;53450;42.584;23.366;2023-06-14T17:39:53;12.95;;;10.00;;
66593;SDS011;53450;42.584;23.366;2023-06-14T17:42:18;14.90;;;9.93;;
66593;SDS011;53450;42.584;23.366;2023-06-14T17:44:44;11.38;;;9.90;;
66593;SDS011;53450;42.584;23.366;2023-06-14T17:47:10;16.55;;;9.63;;
66593;SDS011;53450;42.584;23.366;2023-06-14T17:49:35;13.60;;;9.95;;
66593;SDS011;53450;42.584;23.366;2023-06-14T17:52:01;13.48;;;9.25;;
66593;SDS011;53450;42.584;23.366;2023-06-14T17:54:27;13.38;;;9.43;;
66593;SDS011;53450;42.584;23.366;2023-06-14T17:56:52;13.80;;;9.43;;
66593;SDS011;53450;42.584;23.366;2023-06-14T17:59:21;14.43;;;9.52;;
66593;SDS011;53450;42.584;23.366;2023-06-14T18:01:47;14.40;;;9.80;;
66593;SDS011;53450;42.584;23.366;2023-06-14T18:04:12;11.77;;;9.32;;
66593;SDS011;53450;42.584;23.366;2023-06-14T18:06:47;15.88;;;10.00;;
66593;SDS011;53450;42.584;23.366;2023-06-14T18:09:13;14.57;;;10.05;;
66593;SDS011;53450;42.584;23.366;2023-06-14T18:11:40;14.75;;;10.27;;
66593;SDS011;53450;42.584;23.366;2023-06-14T18:14:05;13.68;;;10.80;;
66593;SDS011;53450;42.584;23.366;2023-06-14T18:17:02;12.93;;;10.70;;
66593;SDS011;53450;42.584;23.366;2023-06-14T18:19:28;13.55;;;10.90;;
66593;SDS011;53450;42.584;23.366;2023-06-14T18:21:54;15.27;;;10.75;;
66593;SDS011;53450;42.584;23.366;2023-06-14T18:24:21;11.70;;;10.52;;
66593;SDS011;53450;42.584;23.366;2023-06-14T18:26:47;13.40;;;10.40;;
66593;SDS011;53450;42.584;23.366;2023-06-14T18:29:13;11.45;;;10.18;;
66593;SDS011;53450;42.584;23.366;2023-06-14T18:31:40;12.15;;;10.43;;
66593;SDS011;53450;42.584;23.366;2023-06-14T18:34:06;13.40;;;9.52;;
66593;SDS011;53450;42.584;23.366;2023-06-14T18:36:32;17.38;;;10.43;;
66593;SDS011;53450;42.584;23.366;2023-06-14T18:38:58;13.23;;;10.40;;
66593;SDS011;53450;42.584;23.366;2023-06-14T18:41:24;21.08;;;11.57;;
66593;SDS011;53450;42.584;23.366;2023-06-14T18:43:50;13.73;;;12.02;;
66593;SDS011;53450;42.584;23.366;2023-06-14T18:46:16;14.70;;;12.07;;
66593;SDS011;53450;42.584;23.366;2023-06-14T18:48:42;16.45;;;10.88;;
66593;SDS011;53450;42.584;23.366;2023-06-14T18:51:08;13.20;;;11.90;;
66593;SDS011;53450;42.584;23.366;2023-06-14T18:53:34;14.77;;;11.95;;
66593;SDS011;53450;42.584;23.366;2023-06-14T18:56:00;16.35;;;12.75;;
66593;SDS011;53450;42.584;23.366;2023-06-14T18:58:26;14.38;;;11.70;;
66593;SDS011;53450;42.584;23.366;2023-06-14T19:00:52;19.90;;;12.65;;
66593;SDS011;53450;42.584;23.366;2023-06-14T19:03:17;18.95;;;14.13;;
66593;SDS011;53450;42.584;23.366;2023-06-14T19:05:43;23.02;;;14.57;;
66593;SDS011;53450;42.584;23.366;2023-06-14T19:08:08;16.52;;;12.85;;
66593;SDS011;53450;42.584;23.366;2023-06-14T19:10:35;18.40;;;11.15;;
66593;SDS011;53450;42.584;23.366;2023-06-14T19:13:01;11.73;;;10.45;;
66593;SDS011;53450;42.584;23.366;2023-06-14T19:15:26;15.93;;;11.48;;
66593;SDS011;53450;42.584;23.366;2023-06-14T19:17:53;13.38;;;10.35;;
66593;SDS011;53450;42.584;23.366;2023-06-14T19:20:21;14.88;;;11.65;;
66593;SDS011;53450;42.584;23.366;2023-06-14T19:22:47;13.82;;;12.30;;
66593;SDS011;53450;42.584;23.366;2023-06-14T19:25:13;18.05;;;12.55;;
66593;SDS011;53450;42.584;23.366;2023-06-14T19:27:39;20.20;;;13.45;;
66593;SDS011;53450;42.584;23.366;2023-06-14T19:30:05;17.90;;;11.88;;
66593;SDS011;53450;42.584;23.366;2023-06-14T19:32:31;12.57;;;11.30;;
66593;SDS011;53450;42.584;23.366;2023-06-14T19:34:58;14.90;;;10.63;;
66593;SDS011;53450;42.584;23.366;2023-06-14T19:37:23;17.40;;;11.48;;
66593;SDS011;53450;42.584;23.366;2023-06-14T19:39:49;12.43;;;10.80;;
66593;SDS011;53450;42.584;23.366;2023-06-14T19:42:15;13.57;;;10.32;;
66593;SDS011;53450;42.584;23.366;2023-06-14T19:44:40;12.07;;;10.88;;
66593;SDS011;53450;42.584;23.366;2023-06-14T19:47:06;13.25;;;10.77;;
66593;SDS011;53450;42.584;23.366;2023-06-14T19:49:31;17.60;;;10.25;;
66593;SDS011;53450;42.584;23.366;2023-06-14T19:51:57;14.18;;;10.23;;
66593;SDS011;53450;42.584;23.366;2023-06-14T19:54:22;17.77;;;11.10;;
66593;SDS011;53450;42.584;23.366;2023-06-14T19:56:48;14.23;;;12.73;;
66593;SDS011;53450;42.584;23.366;2023-06-14T19:59:13;20.65;;;14.52;;
66593;SDS011;53450;42.584;23.366;2023-06-14T20:01:39;19.27;;;11.93;;
66593;SDS011;53450;42.584;23.366;2023-06-14T20:04:05;13.88;;;11.88;;
66593;SDS011;53450;42.584;23.366;2023-06-14T20:06:30;10.07;;;8.85;;
66593;SDS011;53450;42.584;23.366;2023-06-14T20:08:56;9.98;;;8.98;;
66593;SDS011;53450;42.584;23.366;2023-06-14T20:11:21;17.30;;;8.82;;
66593;SDS011;53450;42.584;23.366;2023-06-14T20:13:47;10.63;;;8.57;;
66593;SDS011;53450;42.584;23.366;2023-06-14T20:16:12;13.73;;;9.65;;
66593;SDS011;53450;42.584;23.366;2023-06-14T20:18:38;19.10;;;10.60;;
66593;SDS011;53450;42.584;23.366;2023-06-14T20:21:29;18.17;;;10.07;;
66593;SDS011;53450;42.584;23.366;2023-06-14T20:23:55;38.92;;;10.70;;
66593;SDS011;53450;42.584;23.366;2023-06-14T20:26:20;27.25;;;9.50;;
66593;SDS011;53450;42.584;23.366;2023-06-14T20:28:46;17.50;;;8.25;;
66593;SDS011;53450;42.584;23.366;2023-06-14T20:31:13;11.25;;;7.72;;
66593;SDS011;53450;42.584;23.366;2023-06-14T20:36:09;10.55;;;7.70;;
66593;SDS011;53450;42.584;23.366;2023-06-14T20:38:37;13.18;;;9.02;;
66593;SDS011;53450;42.584;23.366;2023-06-14T20:41:03;20.10;;;10.13;;
66593;SDS011;53450;42.584;23.366;2023-06-14T20:43:28;19.20;;;9.27;;
66593;SDS011;53450;42.584;23.366;2023-06-14T20:45:54;15.65;;;7.43;;
66593;SDS011;53450;42.584;23.366;2023-06-14T20:48:22;10.27;;;6.63;;
66593;SDS011;53450;42.584;23.366;2023-06-14T20:50:48;17.80;;;7.45;;
66593;SDS011;53450;42.584;23.366;2023-06-14T20:53:14;24.35;;;9.38;;
66593;SDS011;53450;42.584;23.366;2023-06-14T20:55:40;21.65;;;11.90;;
66593;SDS011;53450;42.584;23.366;2023-06-14T20:58:06;21.88;;;13.05;;
66593;SDS011;53450;42.584;23.366;2023-06-14T21:00:32;23.65;;;13.35;;
66593;SDS011;53450;42.584;23.366;2023-06-14T21:02:58;23.83;;;13.02;;
66593;SDS011;53450;42.584;23.366;2023-06-14T21:05:27;13.43;;;9.07;;
66593;SDS011;53450;42.584;23.366;2023-06-14T21:07:53;14.88;;;9.25;;
66593;SDS011;53450;42.584;23.366;2023-06-14T21:10:19;13.93;;;8.35;;
66593;SDS011;53450;42.584;23.366;2023-06-14T21:12:45;14.10;;;8.93;;
66593;SDS011;53450;42.584;23.366;2023-06-14T21:15:10;14.85;;;10.32;;
66593;SDS011;53450;42.584;23.366;2023-06-14T21:17:36;17.45;;;10.77;;
66593;SDS011;53450;42.584;23.366;2023-06-14T21:20:02;20.85;;;11.57;;
66593;SDS011;53450;42.584;23.366;2023-06-14T21:22:29;16.52;;;12.38;;
66593;SDS011;53450;42.584;23.366;2023-06-14T21:24:55;17.92;;;12.52;;
66593;SDS011;53450;42.584;23.366;2023-06-14T21:27:20;18.88;;;9.50;;
66593;SDS011;53450;42.584;23.366;2023-06-14T21:29:46;11.10;;;7.88;;
66593;SDS011;53450;42.584;23.366;2023-06-14T21:32:11;10.77;;;8.07;;
66593;SDS011;53450;42.584;23.366;2023-06-14T21:34:37;10.07;;;8.07;;
66593;SDS011;53450;42.584;23.366;2023-06-14T21:37:05;12.38;;;7.18;;
66593;SDS011;53450;42.584;23.366;2023-06-14T21:39:31;8.02;;;6.18;;
66593;SDS011;53450;42.584;23.366;2023-06-14T21:42:22;8.27;;;6.63;;
66593;SDS011;53450;42.584;23.366;2023-06-14T21:45:13;7.20;;;6.07;;
66593;SDS011;53450;42.584;23.366;2023-06-14T21:48:04;11.38;;;6.25;;
66593;SDS011;53450;42.584;23.366;2023-06-14T21:50:55;9.25;;;6.45;;